Time;durP1;ratioP1;P1;durP2;ratioP2;P2;SDS_P1;SDS_P2;PMS_P1;PMS_P2;Temp;Humidity;BMP_temperature;BMP_pressure;BME280_temperature;BME280_humidity;BME280_pressure;Samples;Min_cycle;Max_cycle;Signal;HPM_P1;HPM_P2
2023/02/28 00:02:25;;;;;;;1.00;1.00;;;;;;;12.67;76.78;97485.16;5004617;28;20053;-61
2023/02/28 00:05:00;;;;;;;0.90;0.90;;;;;;;12.42;77.34;97479.19;5003085;28;20053;-62
2023/02/28 00:07:27;;;;;;;1.00;1.00;;;;;;;12.30;78.83;97482.16;5004553;28;20132;-62
2023/02/28 00:09:54;;;;;;;1.00;1.00;;;;;;;12.51;78.05;97515.03;5021159;28;20088;-61
2023/02/28 00:12:21;;;;;;;1.00;1.00;;;;;;;12.27;78.92;97474.56;5024024;28;20073;-63
2023/02/28 00:14:47;;;;;;;0.90;0.90;;;;;;;12.38;79.17;97494.97;5024028;28;20057;-61
2023/02/28 00:17:14;;;;;;;0.90;0.90;;;;;;;12.34;79.23;97494.13;5024219;28;20061;-61
2023/02/28 00:19:41;;;;;;;0.93;0.93;;;;;;;12.37;79.33;97495.34;5024306;28;20053;-61
2023/02/28 00:22:07;;;;;;;0.90;0.90;;;;;;;12.34;79.12;97488.56;5022481;28;20383;-61
2023/02/28 00:24:34;;;;;;;0.98;0.98;;;;;;;12.08;80.49;97485.72;5023671;28;20375;-61
2023/02/28 00:27:01;;;;;;;1.00;1.00;;;;;;;12.20;80.59;97493.91;5023793;28;20469;-61
2023/02/28 00:29:27;;;;;;;1.00;1.00;;;;;;;12.32;79.95;97496.47;5022782;28;20057;-63
2023/02/28 00:31:54;;;;;;;0.98;0.98;;;;;;;10.39;79.01;97176.66;5023899;28;20172;-61
2023/02/28 00:34:20;;;;;;;0.90;0.90;;;;;;;12.55;78.78;97488.13;5022401;28;20559;-61
2023/02/28 00:36:50;;;;;;;1.00;1.00;;;;;;;12.54;78.82;97495.66;5024114;28;20563;-62
2023/02/28 00:39:17;;;;;;;1.00;1.00;;;;;;;12.60;78.27;97496.16;5024129;28;20053;-62
2023/02/28 00:41:43;;;;;;;1.00;1.00;;;;;;;11.88;78.63;97401.69;5027533;28;20089;-61
2023/02/28 00:44:10;;;;;;;1.00;1.00;;;;;;;11.71;80.46;97421.59;5027712;28;20053;-62
2023/02/28 00:46:37;;;;;;;0.98;0.98;;;;;;;11.85;79.97;97418.28;5027107;28;20086;-61
2023/02/28 00:49:03;;;;;;;1.00;1.00;;;;;;;12.16;81.02;97498.56;5021612;28;20076;-63
2023/02/28 00:51:30;;;;;;;1.00;1.00;;;;;;;11.91;82.10;97502.84;5041479;28;21603;-61
2023/02/28 00:53:57;;;;;;;0.98;0.98;;;;;;;11.66;83.15;97496.84;5025308;28;20127;-62
2023/02/28 00:56:23;;;;;;;0.90;0.90;;;;;;;11.86;83.21;97497.59;5026299;28;20089;-61
2023/02/28 00:58:50;;;;;;;0.90;0.90;;;;;;;11.63;81.71;97488.44;5025179;28;20041;-62
2023/02/28 01:01:17;;;;;;;0.90;0.90;;;;;;;11.15;81.43;97358.66;5025617;28;20053;-63
2023/02/28 01:03:43;;;;;;;1.00;1.00;;;;;;;12.11;81.22;97496.09;5026024;28;20059;-61
2023/02/28 01:06:10;;;;;;;1.00;1.00;;;;;;;11.78;82.81;97499.44;5027144;28;20054;-61
2023/02/28 01:08:36;;;;;;;0.90;0.90;;;;;;;11.85;82.43;97502.38;5027230;28;20057;-62
2023/02/28 01:11:09;;;;;;;0.90;0.90;;;;;;;11.90;81.89;97495.72;5027189;28;20084;-62
2023/02/28 01:13:35;;;;;;;0.90;0.90;;;;;;;11.71;83.15;97493.75;5025751;28;20091;-61
2023/02/28 01:16:02;;;;;;;0.90;0.90;;;;;;;11.68;83.15;97477.81;5042420;28;20428;-61
2023/02/28 01:18:29;;;;;;;1.00;1.00;;;;;;;11.55;82.43;97450.59;5027136;28;20053;-62
2023/02/28 01:20:55;;;;;;;0.88;0.88;;;;;;;9.47;83.72;97162.78;5041729;28;20115;-61
2023/02/28 01:23:23;;;;;;;0.90;0.90;;;;;;;11.25;84.91;97471.75;5027187;28;20391;-61
2023/02/28 01:25:51;;;;;;;0.90;0.90;;;;;;;11.69;84.59;97528.59;5026852;28;20084;-62
2023/02/28 01:28:17;;;;;;;0.90;0.90;;;;;;;11.45;85.32;97501.09;5026899;28;20049;-61
2023/02/28 01:30:48;;;;;;;0.90;0.90;;;;;;;11.32;86.60;97513.50;5026762;28;20081;-62
2023/02/28 01:33:14;;;;;;;0.90;0.90;;;;;;;11.12;86.00;97462.78;5017595;28;20076;-61
2023/02/28 01:35:41;;;;;;;0.90;0.90;;;;;;;10.89;88.95;97510.97;5007126;28;20072;-61
2023/02/28 01:38:08;;;;;;;0.90;0.90;;;;;;;10.96;89.33;97505.56;5007015;28;20089;-61
2023/02/28 01:40:47;;;;;;;0.80;0.80;;;;;;;11.25;88.46;97518.91;5020417;28;20053;-62
2023/02/28 01:43:24;;;;;;;0.90;0.90;;;;;;;11.45;87.00;97514.97;5023923;28;20091;-62
2023/02/28 01:45:53;;;;;;;0.80;0.80;;;;;;;11.18;86.36;97480.72;5041829;28;20383;-61
2023/02/28 01:48:26;;;;;;;0.98;0.98;;;;;;;11.62;85.55;97528.41;5026374;28;20056;-62
2023/02/28 01:50:54;;;;;;;0.90;0.90;;;;;;;11.75;85.02;97543.78;5041189;28;20096;-62
2023/02/28 01:53:30;;;;;;;0.90;0.90;;;;;;;11.73;84.65;97546.09;5026423;28;20080;-62
2023/02/28 01:55:57;;;;;;;0.90;0.90;;;;;;;11.86;84.27;97539.25;5026354;28;20053;-62
2023/02/28 01:58:23;;;;;;;0.85;0.85;;;;;;;11.63;84.04;97519.75;5026279;28;20128;-62
2023/02/28 02:00:50;;;;;;;1.00;1.00;;;;;;;11.77;83.97;97525.59;5026295;28;20462;-62
2023/02/28 02:03:20;;;;;;;0.90;0.90;;;;;;;11.24;85.34;97478.47;5024218;28;20049;-62
2023/02/28 02:05:47;;;;;;;0.90;0.90;;;;;;;11.61;85.73;97532.34;5026150;28;20144;-62
2023/02/28 02:08:21;;;;;;;0.90;0.90;;;;;;;11.63;85.13;97530.84;5025630;28;20065;-62
2023/02/28 02:10:53;;;;;;;;;;;;;;;11.79;84.24;97539.13;5026531;28;20093;-61
2023/02/28 02:13:23;;;;;;;0.93;0.93;;;;;;;11.65;84.90;97544.38;5025825;28;19925;-63
2023/02/28 02:16:08;;;;;;;0.80;0.80;;;;;;;11.63;85.02;97546.72;5041382;28;20057;-61
2023/02/28 02:18:50;;;;;;;0.90;0.90;;;;;;;11.68;84.76;97554.75;5024930;28;20057;-61
2023/02/28 02:21:31;;;;;;;0.90;0.90;;;;;;;11.52;85.76;97565.06;5025976;28;20065;-63
2023/02/28 02:24:30;;;;;;;0.90;0.90;;;;;;;11.24;85.93;97567.22;5024323;28;20119;-61
2023/02/28 02:27:06;;;;;;;0.90;0.90;;;;;;;11.35;86.43;97568.25;5024544;28;20096;-63
2023/02/28 02:29:35;;;;;;;0.90;0.90;;;;;;;11.41;85.86;97566.81;5040986;28;20505;-62
2023/02/28 02:32:20;;;;;;;0.90;0.90;;;;;;;10.88;88.47;97567.53;5010144;28;20065;-62
2023/02/28 02:35:07;;;;;;;0.80;0.80;;;;;;;11.20;88.23;97574.63;5024141;28;20068;-62
2023/02/28 02:37:43;;;;;;;0.80;0.80;;;;;;;10.89;86.86;97522.03;5026296;28;20469;-61
2023/02/28 02:40:34;;;;;;;0.80;0.80;;;;;;;11.15;87.80;97574.91;5024883;28;20508;-63
2023/02/28 02:43:01;;;;;;;0.80;0.80;;;;;;;11.27;87.68;97577.59;5025023;28;20045;-61
2023/02/28 02:45:27;;;;;;;0.90;0.90;;;;;;;11.25;87.36;97571.59;5025303;28;20172;-61
2023/02/28 02:47:58;;;;;;;0.90;0.90;;;;;;;11.02;86.70;97537.41;5025817;28;20061;-63
2023/02/28 02:50:40;;;;;;;0.80;0.80;;;;;;;11.31;87.04;97579.28;5023664;28;20103;-62
2023/02/28 02:53:08;;;;;;;0.80;0.80;;;;;;;11.17;88.22;97578.13;5025194;28;20136;-61
2023/02/28 02:55:41;;;;;;;0.80;0.80;;;;;;;11.22;87.69;97580.63;5025059;28;20081;-61
2023/02/28 02:58:14;;;;;;;0.90;0.90;;;;;;;11.18;87.54;97591.63;5024117;28;20061;-62
2023/02/28 03:00:48;;;;;;;0.80;0.80;;;;;;;10.64;90.65;97587.94;5023992;28;20061;-61
2023/02/28 03:03:17;;;;;;;0.90;0.90;;;;;;;10.81;89.82;97595.91;5025193;28;20049;-62
2023/02/28 03:05:49;;;;;;;0.80;0.80;;;;;;;11.11;88.86;97597.00;5025078;28;20156;-61
2023/02/28 03:08:16;;;;;;;0.90;0.90;;;;;;;11.11;88.47;97596.22;5024932;28;20132;-62
2023/02/28 03:10:46;;;;;;;0.90;0.90;;;;;;;10.41;89.38;97510.22;5024592;28;20046;-61
2023/02/28 03:13:31;;;;;;;0.82;0.82;;;;;;;10.48;91.91;97589.88;5024626;28;20046;-60
2023/02/28 03:16:28;;;;;;;0.80;0.80;;;;;;;10.36;94.39;97599.09;5024997;28;20475;-60
2023/02/28 03:19:17;;;;;;;0.80;0.80;;;;;;;10.61;92.59;97595.00;5023259;28;20903;-62
2023/02/28 03:22:00;;;;;;;0.88;0.88;;;;;;;10.34;92.19;97534.13;5025170;28;20080;-61
2023/02/28 03:24:33;;;;;;;0.90;0.90;;;;;;;10.82;91.17;97580.88;5023307;28;20052;-62
2023/02/28 03:27:14;;;;;;;0.80;0.80;;;;;;;10.91;90.49;97581.47;5024894;28;20509;-61
2023/02/28 03:30:02;;;;;;;0.80;0.80;;;;;;;11.06;89.93;97582.63;5023190;28;20107;-61
2023/02/28 03:32:51;;;;;;;0.80;0.80;;;;;;;11.11;88.91;97590.69;5024832;28;20057;-62
2023/02/28 03:35:25;;;;;;;0.90;0.90;;;;;;;10.77;88.39;97527.69;5023014;28;20119;-62
2023/02/28 03:38:00;;;;;;;0.90;0.90;;;;;;;11.32;87.95;97602.25;5024675;28;20546;-60
2023/02/28 03:40:32;;;;;;;0.90;0.90;;;;;;;11.43;86.94;97608.88;5023211;28;21228;-61
2023/02/28 03:43:04;;;;;;;0.80;0.80;;;;;;;11.36;87.32;97611.47;5024647;28;20414;-60
2023/02/28 03:45:36;;;;;;;0.80;0.80;;;;;;;11.24;88.12;97617.13;5024345;28;20092;-61
2023/02/28 03:48:18;;;;;;;0.80;0.80;;;;;;;11.25;87.46;97607.66;5024785;28;20057;-60
2023/02/28 03:50:49;;;;;;;0.90;0.90;;;;;;;11.31;87.33;97607.00;5024068;28;20519;-62
2023/02/28 03:53:25;;;;;;;1.00;1.00;;;;;;;11.49;86.36;97613.75;5024224;28;20057;-61
2023/02/28 03:56:06;;;;;;;0.90;0.90;;;;;;;11.14;86.40;97567.78;5024278;28;20049;-62
2023/02/28 03:58:39;;;;;;;0.98;0.98;;;;;;;11.38;86.56;97611.91;5024410;28;20065;-62
2023/02/28 04:01:15;;;;;;;0.90;0.90;;;;;;;11.28;86.64;97607.72;5024340;28;20139;-61
2023/02/28 04:03:42;;;;;;;0.90;0.90;;;;;;;11.25;87.71;97618.75;5019133;28;20057;-61
2023/02/28 04:06:17;;;;;;;0.90;0.90;;;;;;;11.13;88.25;97616.88;5004610;28;20046;-61
2023/02/28 04:08:44;;;;;;;0.90;0.90;;;;;;;11.08;88.58;97608.03;5004174;28;20061;-62
2023/02/28 04:11:19;;;;;;;0.90;0.90;;;;;;;11.16;88.53;97629.22;5004195;28;20046;-60
2023/02/28 04:13:45;;;;;;;0.90;0.90;;;;;;;10.78;88.53;97604.13;5004016;28;20576;-61
2023/02/28 04:16:13;;;;;;;0.90;0.90;;;;;;;9.80;91.76;97486.81;5010058;28;20050;-61
2023/02/28 04:19:01;;;;;;;0.80;0.80;;;;;;;10.83;91.37;97656.50;5009497;28;20157;-60
2023/02/28 04:21:29;;;;;;;0.80;0.80;;;;;;;10.67;91.59;97615.72;5010933;28;20053;-62
2023/02/28 04:24:00;;;;;;;0.90;0.90;;;;;;;10.27;95.42;97644.72;5010531;28;20133;-61
2023/02/28 04:26:35;;;;;;;0.88;0.88;;;;;;;10.18;96.94;97653.16;5010784;28;20417;-61
2023/02/28 04:29:04;;;;;;;0.80;0.80;;;;;;;10.02;98.24;97655.03;5010696;28;20614;-62
2023/02/28 04:31:31;;;;;;;0.80;0.80;;;;;;;10.18;97.77;97647.63;5010742;28;20089;-62
2023/02/28 04:33:58;;;;;;;0.77;0.77;;;;;;;9.92;98.17;97646.44;5025584;28;20046;-60
2023/02/28 04:36:25;;;;;;;0.70;0.70;;;;;;;10.11;97.83;97652.97;5009115;28;20108;-61
2023/02/28 04:38:52;;;;;;;0.80;0.80;;;;;;;9.60;100.00;97652.97;5010859;28;20100;-60
2023/02/28 04:41:19;;;;;;;0.80;0.80;;;;;;;9.87;100.00;97661.34;5010830;28;20058;-60
2023/02/28 04:43:45;;;;;;;0.75;0.75;;;;;;;9.47;100.00;97627.31;5029407;28;20199;-62
2023/02/28 04:46:12;;;;;;;0.77;0.77;;;;;;;9.59;100.00;97663.25;5030059;28;20057;-61
2023/02/28 04:48:40;;;;;;;0.80;0.80;;;;;;;9.69;100.00;97673.03;5030542;28;20597;-62
2023/02/28 04:51:12;;;;;;;0.80;0.80;;;;;;;9.69;100.00;97676.59;5029057;28;20160;-61
2023/02/28 04:53:40;;;;;;;0.80;0.80;;;;;;;9.82;100.00;97672.66;5030505;28;20566;-61
2023/02/28 04:56:08;;;;;;;0.70;0.70;;;;;;;8.84;100.00;97572.81;5028210;28;20049;-61
2023/02/28 04:58:35;;;;;;;0.70;0.70;;;;;;;9.50;100.00;97665.31;5030622;28;20061;-60
2023/02/28 05:01:32;;;;;;;0.80;0.80;;;;;;;9.47;100.00;97660.50;5029913;28;20069;-60
2023/02/28 05:04:01;;;;;;;0.70;0.70;;;;;;;9.77;100.00;97667.34;5029619;28;20080;-61
2023/02/28 05:06:30;;;;;;;0.70;0.70;;;;;;;9.26;100.00;97642.44;5028398;28;20056;-61
2023/02/28 05:08:57;;;;;;;0.80;0.80;;;;;;;6.82;100.00;97245.72;5030022;28;20092;-60
2023/02/28 05:11:34;;;;;;;0.70;0.70;;;;;;;9.29;100.00;97664.69;5028501;28;20049;-61
2023/02/28 05:14:07;;;;;;;0.70;0.70;;;;;;;9.23;100.00;97643.97;5030476;28;20049;-61
2023/02/28 05:16:33;;;;;;;0.70;0.70;;;;;;;9.49;100.00;97701.63;5029967;28;20049;-62
2023/02/28 05:19:00;;;;;;;0.77;0.77;;;;;;;9.78;100.00;97671.75;5028722;28;20335;-61
2023/02/28 05:21:33;;;;;;;0.70;0.70;;;;;;;10.08;100.00;97670.28;5029760;28;20131;-60
2023/02/28 05:24:02;;;;;;;0.70;0.70;;;;;;;9.97;100.00;97657.25;5028630;28;20057;-60
2023/02/28 05:26:29;;;;;;;0.80;0.80;;;;;;;9.61;100.00;97605.59;5027059;28;20146;-62
2023/02/28 05:28:56;;;;;;;0.75;0.75;;;;;;;9.35;100.00;97635.63;5025724;28;20041;-61
2023/02/28 05:31:23;;;;;;;0.70;0.70;;;;;;;9.83;100.00;97692.81;5026949;28;20045;-61
2023/02/28 05:33:51;;;;;;;0.80;0.80;;;;;;;9.85;100.00;97694.06;5026321;28;20037;-61
2023/02/28 05:36:18;;;;;;;0.80;0.80;;;;;;;10.06;100.00;97697.47;5025805;28;20061;-62
2023/02/28 05:38:49;;;;;;;0.70;0.70;;;;;;;9.93;100.00;97672.94;5026747;28;20131;-63
2023/02/28 05:41:17;;;;;;;0.77;0.77;;;;;;;9.62;100.00;97657.03;5024734;28;20060;-61
2023/02/28 05:43:44;;;;;;;0.77;0.77;;;;;;;10.24;100.00;97718.19;5026547;28;20536;-61
2023/02/28 05:46:11;;;;;;;0.70;0.70;;;;;;;9.91;100.00;97717.56;5024552;28;20088;-61
2023/02/28 05:48:40;;;;;;;0.77;0.77;;;;;;;9.77;100.00;97680.41;5026001;28;20060;-61
2023/02/28 05:51:07;;;;;;;0.80;0.80;;;;;;;10.30;100.00;97722.34;5021480;28;20053;-60
2023/02/28 05:53:34;;;;;;;0.80;0.80;;;;;;;10.02;100.00;97721.47;5029885;28;20067;-61
2023/02/28 05:56:02;;;;;;;0.80;0.80;;;;;;;9.81;100.00;97659.16;5045348;28;20512;-61
2023/02/28 05:58:30;;;;;;;0.70;0.70;;;;;;;10.20;99.99;97727.56;5045504;28;20060;-62
2023/02/28 06:00:58;;;;;;;0.70;0.70;;;;;;;10.06;100.00;97710.50;5046236;28;20056;-62
2023/02/28 06:03:26;;;;;;;0.77;0.77;;;;;;;10.39;98.31;97747.09;5045734;28;20436;-62
2023/02/28 06:05:53;;;;;;;0.80;0.80;;;;;;;9.96;97.55;97672.25;5045897;28;20063;-62
2023/02/28 06:08:20;;;;;;;0.80;0.80;;;;;;;10.56;95.11;97730.19;5045696;28;20072;-64
2023/02/28 06:10:46;;;;;;;0.80;0.80;;;;;;;10.76;93.38;97745.00;5045897;28;20057;-63
2023/02/28 06:13:14;;;;;;;0.90;0.90;;;;;;;10.80;92.57;97734.78;5045026;28;20569;-62
2023/02/28 06:15:40;;;;;;;0.90;0.90;;;;;;;10.13;91.93;97628.50;5045299;28;20053;-62
2023/02/28 06:18:07;;;;;;;0.73;0.73;;;;;;;10.47;94.00;97735.06;5043727;28;20142;-61
2023/02/28 06:20:34;;;;;;;0.80;0.80;;;;;;;10.08;94.60;97699.94;5045322;28;20049;-62
2023/02/28 06:23:01;;;;;;;0.80;0.80;;;;;;;10.63;93.14;97742.28;5045086;28;20515;-61
2023/02/28 06:25:27;;;;;;;0.88;0.88;;;;;;;10.60;92.73;97743.00;5044031;28;20053;-61
2023/02/28 06:27:55;;;;;;;0.80;0.80;;;;;;;10.23;96.73;97747.06;5044799;28;20061;-62
2023/02/28 06:30:26;;;;;;;0.70;0.70;;;;;;;9.70;97.25;97705.88;5038684;28;20076;-61
2023/02/28 06:32:54;;;;;;;0.73;0.73;;;;;;;9.18;100.00;97702.22;5044792;28;20482;-62
2023/02/28 06:35:21;;;;;;;0.77;0.77;;;;;;;9.83;100.00;97768.31;5043381;28;20080;-62
2023/02/28 06:37:48;;;;;;;0.70;0.70;;;;;;;9.84;98.98;97747.81;5044728;28;20488;-61
2023/02/28 06:40:15;;;;;;;0.80;0.80;;;;;;;9.76;100.00;97745.97;5044057;28;20084;-62
2023/02/28 06:42:42;;;;;;;0.80;0.80;;;;;;;9.94;98.12;97741.00;5037014;28;20465;-62
2023/02/28 06:45:10;;;;;;;0.80;0.80;;;;;;;9.74;95.76;97670.81;5025520;28;20054;-61
2023/02/28 06:47:39;;;;;;;0.80;0.80;;;;;;;10.14;95.63;97751.13;5024308;28;20337;-62
2023/02/28 06:50:08;;;;;;;0.80;0.80;;;;;;;9.74;94.54;97681.06;5019108;28;20480;-61
2023/02/28 06:52:37;;;;;;;0.90;0.90;;;;;;;10.57;89.32;97737.34;5023750;28;20041;-59
2023/02/28 06:55:06;;;;;;;0.80;0.80;;;;;;;10.72;86.62;97744.88;5020939;28;20099;-62
2023/02/28 06:57:35;;;;;;;0.82;0.82;;;;;;;10.91;85.48;97742.25;5020240;28;20099;-61
2023/02/28 07:00:07;;;;;;;0.90;0.90;;;;;;;10.19;87.10;97748.94;5024675;28;20512;-63
2023/02/28 07:02:35;;;;;;;0.80;0.80;;;;;;;10.13;88.12;97728.16;5016065;28;20856;-60
2023/02/28 07:05:03;;;;;;;0.80;0.80;;;;;;;10.62;86.74;97754.50;5021660;28;20292;-61
2023/02/28 07:07:30;;;;;;;0.80;0.80;;;;;;;10.42;84.58;97664.13;5021667;28;20499;-61
2023/02/28 07:09:57;;;;;;;0.90;0.90;;;;;;;10.40;83.47;97671.97;5017591;28;20085;-61
2023/02/28 07:12:23;;;;;;;0.88;0.88;;;;;;;10.20;82.47;97623.16;5004877;28;20056;-61
2023/02/28 07:14:50;;;;;;;0.85;0.85;;;;;;;10.97;83.09;97767.75;5018217;28;20099;-61
2023/02/28 07:17:16;;;;;;;0.90;0.90;;;;;;;10.93;82.68;97741.88;5023173;28;20057;-61
2023/02/28 07:19:43;;;;;;;0.90;0.90;;;;;;;10.54;84.22;97711.16;5022810;28;20054;-61
2023/02/28 07:22:10;;;;;;;0.80;0.80;;;;;;;10.80;84.37;97773.59;5016477;28;20779;-59
2023/02/28 07:24:38;;;;;;;0.88;0.88;;;;;;;10.39;84.92;97691.72;5015220;28;20057;-61
2023/02/28 07:27:04;;;;;;;0.80;0.80;;;;;;;10.80;85.24;97765.28;5020152;28;20053;-59
2023/02/28 07:29:31;;;;;;;0.90;0.90;;;;;;;10.53;85.56;97731.72;5014133;28;20133;-62
2023/02/28 07:31:58;;;;;;;0.80;0.80;;;;;;;10.84;85.77;97763.44;5020019;28;20049;-64
2023/02/28 07:34:25;;;;;;;0.90;0.90;;;;;;;10.85;85.24;97767.78;5015755;28;20080;-66
2023/02/28 07:36:54;;;;;;;0.90;0.90;;;;;;;11.01;85.36;97769.44;5014064;28;20377;-62
2023/02/28 07:39:22;;;;;;;0.80;0.80;;;;;;;10.97;84.42;97734.50;5013499;28;20081;-60
2023/02/28 07:41:48;;;;;;;0.93;0.93;;;;;;;11.28;83.39;97767.78;5016920;28;20085;-60
2023/02/28 07:44:15;;;;;;;0.90;0.90;;;;;;;11.39;83.04;97774.41;5007393;28;20135;-60
2023/02/28 07:46:42;;;;;;;0.90;0.90;;;;;;;11.49;82.94;97768.31;5015574;28;20046;-60
2023/02/28 07:49:08;;;;;;;0.90;0.90;;;;;;;11.36;82.06;97725.19;5022776;28;20184;-60
2023/02/28 07:51:35;;;;;;;1.00;1.00;;;;;;;11.60;81.87;97769.38;5006196;28;20118;-62
2023/02/28 07:54:02;;;;;;;0.80;0.80;;;;;;;11.64;82.31;97770.31;5023409;28;20060;-61
2023/02/28 07:56:29;;;;;;;0.90;0.90;;;;;;;11.59;81.65;97762.22;5019391;28;20057;-61
2023/02/28 07:58:56;;;;;;;0.90;0.90;;;;;;;11.41;82.75;97742.34;5021603;28;20054;-58
2023/02/28 08:01:23;;;;;;;0.85;0.85;;;;;;;10.80;82.09;97651.66;5016071;28;20440;-59
2023/02/28 08:03:50;;;;;;;0.90;0.90;;;;;;;11.74;81.45;97775.31;5008222;28;20139;-59
2023/02/28 08:06:21;;;;;;;1.00;1.00;;;;;;;11.55;81.94;97753.81;5013473;28;20060;-61
2023/02/28 08:08:48;;;;;;;0.90;0.90;;;;;;;11.63;82.00;97769.50;5022143;28;20053;-65
2023/02/28 08:11:15;;;;;;;0.90;0.90;;;;;;;11.40;82.31;97771.25;5020519;28;20053;-59
2023/02/28 08:13:44;;;;;;;0.95;0.95;;;;;;;11.36;84.03;97773.16;5017181;28;20060;-61
2023/02/28 08:16:17;;;;;;;0.80;0.80;;;;;;;11.26;82.55;97720.16;5021814;28;20045;-65
2023/02/28 08:18:44;;;;;;;0.88;0.88;;;;;;;11.62;82.06;97767.03;5018394;28;20115;-62
2023/02/28 08:21:11;;;;;;;0.90;0.90;;;;;;;10.68;81.28;97611.78;5004046;28;20108;-61
2023/02/28 08:23:38;;;;;;;1.00;1.00;;;;;;;11.85;80.20;97776.38;5013765;28;20084;-60
2023/02/28 08:26:05;;;;;;;1.00;1.00;;;;;;;11.69;81.56;97795.00;5023522;28;20479;-60
2023/02/28 08:28:32;;;;;;;0.93;0.93;;;;;;;11.22;81.27;97710.97;5022873;28;20060;-59
2023/02/28 08:30:58;;;;;;;0.90;0.90;;;;;;;10.89;81.55;97688.34;5018749;28;20053;-58
2023/02/28 08:33:27;;;;;;;0.90;0.90;;;;;;;10.97;81.84;97701.22;5022847;28;20054;-60
2023/02/28 08:35:56;;;;;;;0.90;0.90;;;;;;;11.47;82.28;97781.75;5022053;28;20063;-60
2023/02/28 08:38:23;;;;;;;0.90;0.90;;;;;;;11.32;82.83;97774.22;5020854;28;20053;-61
2023/02/28 08:40:57;;;;;;;0.90;0.90;;;;;;;11.52;82.58;97785.03;5018096;28;20045;-60
2023/02/28 08:43:24;;;;;;;0.85;0.85;;;;;;;11.09;81.93;97746.31;5021643;28;20049;-59
2023/02/28 08:45:52;;;;;;;0.90;0.90;;;;;;;10.39;81.72;97598.38;5021057;28;20045;-58
2023/02/28 08:48:19;;;;;;;0.88;0.88;;;;;;;11.25;82.38;97782.34;5022262;28;20060;-61
2023/02/28 08:50:58;;;;;;;0.90;0.90;;;;;;;10.79;81.99;97692.44;5003803;28;20471;-61
2023/02/28 08:53:33;;;;;;;0.90;0.90;;;;;;;11.43;82.08;97786.41;5014756;28;20053;-60
2023/02/28 08:56:05;;;;;;;0.90;0.90;;;;;;;10.81;82.24;97692.09;5003574;28;20080;-56
2023/02/28 08:58:34;;;;;;;0.90;0.90;;;;;;;11.21;83.91;97789.75;5004383;28;20504;-60
2023/02/28 09:01:07;;;;;;;0.90;0.90;;;;;;;10.94;83.18;97741.53;5028675;28;20530;-58
2023/02/28 09:03:33;;;;;;;0.90;0.90;;;;;;;10.74;83.83;97725.94;5023473;28;20128;-60
2023/02/28 09:06:00;;;;;;;0.90;0.90;;;;;;;11.04;83.61;97792.88;5007405;28;20445;-62
2023/02/28 09:08:30;;;;;;;0.80;0.80;;;;;;;10.64;86.78;97792.94;5009299;28;20115;-59
2023/02/28 09:10:57;;;;;;;0.80;0.80;;;;;;;9.57;89.19;97679.38;5026442;28;20057;-58
2023/02/28 09:13:26;;;;;;;0.73;0.73;;;;;;;10.09;91.55;97798.41;5014163;28;20045;-61
2023/02/28 09:15:54;;;;;;;0.80;0.80;;;;;;;9.98;91.15;97730.81;5018346;28;20339;-59
2023/02/28 09:18:20;;;;;;;0.75;0.75;;;;;;;10.66;89.21;97797.00;5008514;28;20049;-59
2023/02/28 09:20:47;;;;;;;0.80;0.80;;;;;;;10.70;88.00;97792.34;5026315;28;20112;-61
2023/02/28 09:23:14;;;;;;;0.80;0.80;;;;;;;10.90;87.07;97817.44;5025190;28;20057;-60
2023/02/28 09:25:51;;;;;;;0.90;0.90;;;;;;;11.09;85.95;97809.25;5020050;28;20057;-58
2023/02/28 09:28:19;;;;;;;0.90;0.90;;;;;;;10.56;85.35;97736.53;5006405;28;20054;-61
2023/02/28 09:30:48;;;;;;;0.80;0.80;;;;;;;11.16;85.38;97798.38;5014709;28;20050;-58
2023/02/28 09:33:17;;;;;;;0.80;0.80;;;;;;;11.38;84.22;97801.31;5020550;28;20238;-59
2023/02/28 09:35:43;;;;;;;0.90;0.90;;;;;;;11.47;83.59;97798.38;5026068;28;20123;-56
2023/02/28 09:38:10;;;;;;;0.80;0.80;;;;;;;11.37;83.67;97815.56;5022623;28;20111;-58
2023/02/28 09:40:47;;;;;;;0.90;0.90;;;;;;;11.41;83.90;97794.28;5024533;28;20433;-61
2023/02/28 09:43:15;;;;;;;1.00;1.00;;;;;;;11.04;84.69;97762.38;5023612;28;20049;-61
2023/02/28 09:45:48;;;;;;;0.80;0.80;;;;;;;11.05;86.14;97786.19;5023362;28;20440;-60
2023/02/28 09:48:20;;;;;;;0.90;0.90;;;;;;;10.42;86.82;97704.84;5024118;28;20479;-60
2023/02/28 09:50:53;;;;;;;0.80;0.80;;;;;;;10.98;87.97;97785.97;5023703;28;20081;-59
2023/02/28 09:53:27;;;;;;;0.80;0.80;;;;;;;10.85;88.04;97720.69;5023632;28;20065;-57
2023/02/28 09:56:05;;;;;;;0.90;0.90;;;;;;;11.41;87.29;97778.41;5021977;28;20140;-60
2023/02/28 09:58:49;;;;;;;0.90;0.90;;;;;;;11.29;86.88;97780.47;5009635;28;20285;-58
2023/02/28 10:01:31;;;;;;;0.82;0.82;;;;;;;11.26;86.73;97782.00;5014853;28;20169;-56
2023/02/28 10:04:16;;;;;;;0.90;0.90;;;;;;;10.80;87.78;97743.09;5024210;28;20057;-58
2023/02/28 10:06:50;;;;;;;0.80;0.80;;;;;;;10.74;89.89;97767.50;5020753;28;20144;-57
2023/02/28 10:09:25;;;;;;;0.80;0.80;;;;;;;11.06;90.37;97768.38;5025233;28;20140;-56
2023/02/28 10:11:56;;;;;;;0.80;0.80;;;;;;;10.49;92.23;97775.13;5020767;28;20053;-60
2023/02/28 10:14:28;;;;;;;0.80;0.80;;;;;;;10.63;92.63;97769.19;5005769;28;20057;-59
2023/02/28 10:16:57;;;;;;;0.80;0.80;;;;;;;10.71;92.50;97765.44;5006164;28;20456;-57
2023/02/28 10:19:35;;;;;;;0.88;0.88;;;;;;;9.93;92.69;97682.06;5015889;28;20081;-59
2023/02/28 10:22:22;;;;;;;0.88;0.88;;;;;;;10.37;91.29;97692.06;5008357;28;20106;-57
2023/02/28 10:24:51;;;;;;;0.80;0.80;;;;;;;10.94;91.16;97758.16;5018476;28;20057;-57
2023/02/28 10:27:28;;;;;;;0.88;0.88;;;;;;;10.90;91.35;97751.72;5023270;28;20096;-56
2023/02/28 10:29:57;;;;;;;0.82;0.82;;;;;;;11.12;89.58;97753.09;5022997;28;20058;-59
2023/02/28 10:32:28;;;;;;;0.88;0.88;;;;;;;11.04;90.14;97748.50;5024832;28;20080;-57
2023/02/28 10:35:07;;;;;;;0.80;0.80;;;;;;;11.09;88.67;97748.25;5016346;28;20042;-57
2023/02/28 10:37:38;;;;;;;0.80;0.80;;;;;;;10.98;87.51;97713.91;5025299;28;20131;-57
2023/02/28 10:40:18;;;;;;;0.93;0.93;;;;;;;11.14;87.79;97739.69;5023232;28;20045;-61
2023/02/28 10:43:02;;;;;;;0.80;0.80;;;;;;;11.09;87.08;97692.81;5038557;28;20578;-59
2023/02/28 10:45:35;;;;;;;0.90;0.90;;;;;;;11.56;85.13;97724.09;5015469;28;20671;-58
2023/02/28 10:48:14;;;;;;;0.90;0.90;;;;;;;11.82;83.80;97719.59;5025237;28;20096;-61
2023/02/28 10:50:45;;;;;;;0.90;0.90;;;;;;;11.76;84.13;97711.94;5024744;28;20053;-61
2023/02/28 10:53:23;;;;;;;0.85;0.85;;;;;;;9.75;91.00;97611.59;5016050;28;20513;-57
2023/02/28 10:56:04;;;;;;;0.80;0.80;;;;;;;10.27;94.26;97717.53;5004955;28;20065;-59
2023/02/28 10:58:48;;;;;;;0.80;0.80;;;;;;;9.74;99.46;97709.53;5006835;28;20122;-60
2023/02/28 11:01:17;;;;;;;;;;;;;;;10.46;95.03;97703.78;5023434;28;20059;-61
2023/02/28 11:03:44;;;;;;;0.80;0.80;;;;;;;8.85;98.57;97593.78;5022324;28;19987;-58
2023/02/28 11:06:20;;;;;;;0.80;0.80;;;;;;;9.11;100.00;97686.22;5014293;28;20145;-61
2023/02/28 11:08:53;;;;;;;0.70;0.70;;;;;;;9.58;100.00;97694.81;5017996;28;20053;-63
2023/02/28 11:11:23;;;;;;;0.80;0.80;;;;;;;9.36;97.86;97554.28;5020685;28;20060;-63
2023/02/28 11:14:04;;;;;;;0.70;0.70;;;;;;;10.27;95.56;97689.84;5024345;28;20111;-62
2023/02/28 11:16:37;;;;;;;0.80;0.80;;;;;;;9.04;96.94;97552.53;5019439;28;20041;-65
2023/02/28 11:19:16;;;;;;;0.60;0.60;;;;;;;9.58;98.87;97689.28;5012217;28;20152;-57
2023/02/28 11:21:52;;;;;;;0.70;0.70;;;;;;;9.47;98.90;97687.38;5023217;28;20049;-63
2023/02/28 11:24:28;;;;;;;0.70;0.70;;;;;;;9.92;98.36;97694.31;5021593;28;20119;-61
2023/02/28 11:26:55;;;;;;;0.80;0.80;;;;;;;10.33;95.52;97685.66;5021395;28;20103;-60
2023/02/28 11:29:27;;;;;;;0.70;0.70;;;;;;;10.40;93.19;97671.97;5022630;28;20142;-63
2023/02/28 11:32:21;;;;;;;0.80;0.80;;;;;;;10.81;91.99;97689.31;5024006;28;20107;-66
2023/02/28 11:35:04;;;;;;;0.80;0.80;;;;;;;10.29;91.90;97626.56;5022102;28;20184;-60
2023/02/28 11:37:32;;;;;;;0.80;0.80;;;;;;;10.23;90.14;97569.84;5008437;28;20517;-67
2023/02/28 11:39:59;;;;;;;0.80;0.80;;;;;;;11.06;89.20;97674.13;5023691;28;20119;-58
2023/02/28 11:42:55;;;;;;;0.80;0.80;;;;;;;11.18;89.01;97672.06;5019699;28;20049;-60
2023/02/28 11:45:30;;;;;;;0.77;0.77;;;;;;;10.88;88.96;97670.06;5015967;28;20483;-61
2023/02/28 11:48:13;;;;;;;0.90;0.90;;;;;;;10.50;92.84;97660.41;5014978;28;20348;-62
2023/02/28 11:51:06;;;;;;;0.80;0.80;;;;;;;10.06;90.65;97545.25;5020702;28;20323;-60
2023/02/28 11:54:01;;;;;;;0.90;0.90;;;;;;;10.03;89.13;97551.50;5022345;28;20103;-61